Lemitar, New Mexico
Current Conditions -  °F | °C
As of 12:55 PM on Wednesday 28 Jan 2015 (Local Time) from KONM Reporting Station
NA  
Wind Chill: 67°   Ceiling: NA
Heat Index: 67°   Visibility: 10mi
Dew Point: 35°   Wind: 5mph
Humidity: 31%   Direction: 180°S
Pressure: 30.18"   Gusts: NA
Location:  34.16°N, 106.91°W
Report Text: KONM 281955Z AUTO 18004KT 10SM 19/02 A3018 RMK AO2 T01930015
Loading
Personal Weather Stations






























Interactive Weather Map New forecast layout! Learn more

10-Day Weather Forecast

Advertisements
Track Severe Weather on mobile